createdAt,value
2022-12-01T00:01:21.099Z,26.67
2022-12-01T00:03:48.218Z,26.60
2022-12-01T00:06:19.371Z,25.50
2022-12-01T00:09:08.142Z,27.00
2022-12-01T00:11:37.883Z,24.77
2022-12-01T00:14:05.619Z,27.13
2022-12-01T00:16:34.089Z,25.77
2022-12-01T00:19:01.028Z,26.00
2022-12-01T00:21:28.310Z,26.43
2022-12-01T00:23:57.414Z,25.13
2022-12-01T00:26:25.504Z,26.50
2022-12-01T00:28:59.614Z,26.30
2022-12-01T00:31:27.366Z,26.93
2022-12-01T00:33:54.943Z,26.70
2022-12-01T00:36:22.260Z,27.67
2022-12-01T00:38:53.650Z,24.87
2022-12-01T00:41:21.141Z,25.60
2022-12-01T00:43:48.002Z,26.10
2022-12-01T00:46:15.080Z,26.13
2022-12-01T00:48:42.283Z,26.90
2022-12-01T00:51:09.325Z,28.23
2022-12-01T00:53:36.123Z,27.13
2022-12-01T00:56:02.964Z,26.07
2022-12-01T00:58:29.739Z,25.40
2022-12-01T01:01:01.726Z,26.43
2022-12-01T01:03:30.317Z,26.17
2022-12-01T01:06:00.199Z,27.43
2022-12-01T01:08:26.999Z,25.83
2022-12-01T01:10:53.790Z,24.97
2022-12-01T01:13:20.599Z,26.60
2022-12-01T01:16:18.044Z,26.17
2022-12-01T01:18:45.649Z,25.77
2022-12-01T01:21:16.532Z,26.27
2022-12-01T01:23:43.917Z,25.17
2022-12-01T01:26:20.198Z,25.47
2022-12-01T01:28:48.264Z,26.53
2022-12-01T01:31:19.445Z,26.23
2022-12-01T01:33:46.606Z,26.90
2022-12-01T01:36:14.806Z,25.17
2022-12-01T01:38:42.978Z,25.73
2022-12-01T01:41:10.155Z,25.33
2022-12-01T01:43:56.856Z,25.80
2022-12-01T01:46:33.327Z,26.03
2022-12-01T01:49:10.851Z,25.93
2022-12-01T01:51:52.884Z,25.70
2022-12-01T01:54:31.466Z,26.27
2022-12-01T01:57:01.384Z,25.07
2022-12-01T01:59:34.105Z,24.27
2022-12-01T02:02:06.554Z,26.33
2022-12-01T02:04:36.855Z,25.47
2022-12-01T02:07:05.093Z,25.27
2022-12-01T02:09:31.876Z,24.53
2022-12-01T02:12:35.928Z,26.07
2022-12-01T02:15:31.783Z,25.10
2022-12-01T02:18:35.167Z,23.13
2022-12-01T02:21:12.941Z,22.57
2022-12-01T02:24:06.550Z,23.83
2022-12-01T02:27:08.542Z,24.17
2022-12-01T02:30:04.845Z,23.40
2022-12-01T02:33:09.180Z,22.73
2022-12-01T02:35:48.275Z,24.50
2022-12-01T02:38:31.157Z,23.33
2022-12-01T02:41:27.916Z,24.70
2022-12-01T02:44:11.018Z,23.30
2022-12-01T02:46:55.009Z,22.77
2022-12-01T02:49:31.377Z,23.40
2022-12-01T02:51:59.635Z,23.13
2022-12-01T02:54:30.604Z,22.03
2022-12-01T02:56:57.809Z,22.07
2022-12-01T02:59:24.674Z,22.50
2022-12-01T03:02:04.429Z,23.23
2022-12-01T03:04:55.989Z,23.27
2022-12-01T03:07:47.966Z,22.63
2022-12-01T03:10:57.840Z,22.20
2022-12-01T03:13:49.695Z,20.97
2022-12-01T03:16:33.974Z,21.97
2022-12-01T03:19:08.051Z,21.43
2022-12-01T03:21:52.792Z,20.80
2022-12-01T03:24:23.050Z,21.00
2022-12-01T03:26:56.905Z,21.07
2022-12-01T03:29:38.685Z,20.67
2022-12-01T03:32:47.439Z,21.20
2022-12-01T03:35:24.472Z,22.60
2022-12-01T03:38:08.170Z,21.33
2022-12-01T03:40:37.931Z,21.40
2022-12-01T03:43:10.765Z,22.67
2022-12-01T03:46:07.799Z,21.50
2022-12-01T03:48:37.046Z,20.60
2022-12-01T03:51:25.727Z,20.13
2022-12-01T03:54:03.048Z,20.83
2022-12-01T03:56:36.886Z,21.73
2022-12-01T03:59:06.363Z,19.77
2022-12-01T04:01:36.707Z,19.77
2022-12-01T04:04:11.673Z,19.20
2022-12-01T04:06:42.659Z,19.93
2022-12-01T04:09:09.473Z,20.47
2022-12-01T04:11:54.668Z,20.17
2022-12-01T04:14:21.928Z,19.67
2022-12-01T04:16:48.768Z,19.63
2022-12-01T04:19:15.779Z,19.97
2022-12-01T04:21:42.751Z,20.23
2022-12-01T04:24:09.756Z,19.30
2022-12-01T04:26:37.610Z,20.50
2022-12-01T04:29:07.852Z,19.53
2022-12-01T04:31:35.210Z,20.20
2022-12-01T04:34:02.285Z,18.73
2022-12-01T04:36:34.419Z,20.67
2022-12-01T04:39:02.072Z,20.87
2022-12-01T04:41:28.993Z,20.07
2022-12-01T04:43:56.485Z,19.53
2022-12-01T04:46:24.169Z,20.20
2022-12-01T04:48:51.267Z,19.07
2022-12-01T04:51:18.212Z,18.23
2022-12-01T04:53:45.023Z,19.43
2022-12-01T04:56:11.909Z,18.57
2022-12-01T04:58:39.854Z,18.97
2022-12-01T05:01:10.527Z,18.80
2022-12-01T05:03:39.834Z,18.73
2022-12-01T05:06:11.340Z,20.00
2022-12-01T05:08:38.367Z,18.93
2022-12-01T05:11:07.951Z,19.33
2022-12-01T05:13:40.244Z,18.60
2022-12-01T05:16:08.350Z,18.93
2022-12-01T05:18:35.657Z,18.30
2022-12-01T05:21:04.879Z,18.97
2022-12-01T05:23:35.117Z,19.67
2022-12-01T05:26:04.948Z,17.63
2022-12-01T05:28:31.827Z,19.43
2022-12-01T05:30:58.875Z,18.60
2022-12-01T05:33:27.971Z,18.33
2022-12-01T05:35:55.347Z,18.63
2022-12-01T05:38:22.153Z,18.30
2022-12-01T05:40:54.915Z,19.30
2022-12-01T05:43:28.649Z,19.03
2022-12-01T05:45:57.396Z,18.40
2022-12-01T05:48:25.116Z,18.33
2022-12-01T05:50:51.927Z,18.93
2022-12-01T05:53:19.600Z,18.70
2022-12-01T05:55:46.896Z,18.93
2022-12-01T05:58:13.684Z,17.77
2022-12-01T06:00:45.559Z,17.77
2022-12-01T06:03:13.595Z,18.40
2022-12-01T06:05:40.929Z,17.97
2022-12-01T06:08:08.277Z,18.07
2022-12-01T06:10:35.500Z,18.80
2022-12-01T06:13:02.442Z,19.67
2022-12-01T06:15:29.332Z,18.23
2022-12-01T06:17:59.748Z,18.40
2022-12-01T06:20:26.621Z,17.97
2022-12-01T06:22:53.620Z,17.90
2022-12-01T06:25:20.665Z,19.13
2022-12-01T06:27:47.754Z,18.77
2022-12-01T06:30:14.769Z,18.43
2022-12-01T06:32:41.762Z,18.17
2022-12-01T06:35:09.000Z,18.10
2022-12-01T06:37:35.780Z,19.37
2022-12-01T06:40:02.584Z,18.63
2022-12-01T06:42:31.540Z,19.07
2022-12-01T06:44:58.420Z,19.40
2022-12-01T06:47:25.279Z,19.13
2022-12-01T06:49:52.314Z,18.10
2022-12-01T06:52:19.437Z,19.00
2022-12-01T06:54:46.258Z,19.50
2022-12-01T06:57:13.370Z,18.43
2022-12-01T06:59:40.408Z,17.77
2022-12-01T07:02:11.102Z,18.37
2022-12-01T07:04:38.066Z,18.50
2022-12-01T07:07:05.904Z,18.23
2022-12-01T07:09:32.875Z,17.87
2022-12-01T07:11:59.860Z,18.20
2022-12-01T07:14:27.224Z,19.60
2022-12-01T07:16:54.376Z,18.37
2022-12-01T07:19:21.304Z,18.97
2022-12-01T07:21:48.094Z,17.37
2022-12-01T07:24:15.043Z,18.93
2022-12-01T07:26:42.951Z,17.90
2022-12-01T07:29:10.678Z,18.87
2022-12-01T07:31:38.575Z,18.73
2022-12-01T07:34:06.211Z,18.97
2022-12-01T07:36:33.160Z,18.83
2022-12-01T07:39:00.648Z,19.13
2022-12-01T07:41:27.457Z,19.27
2022-12-01T07:43:55.582Z,18.63
2022-12-01T07:46:25.712Z,19.27
2022-12-01T07:48:54.763Z,19.60
2022-12-01T07:51:23.234Z,18.03
2022-12-01T07:53:52.123Z,19.30
2022-12-01T07:56:20.831Z,20.03
2022-12-01T07:58:47.731Z,18.63
2022-12-01T08:01:19.130Z,17.97
2022-12-01T08:03:48.244Z,18.73
2022-12-01T08:06:15.050Z,18.63
2022-12-01T08:08:42.131Z,18.13
2022-12-01T08:11:18.528Z,17.83
2022-12-01T08:13:45.531Z,18.27
2022-12-01T08:16:16.188Z,19.17
2022-12-01T08:18:44.013Z,19.87
2022-12-01T08:21:16.200Z,21.67
2022-12-01T08:23:43.405Z,21.60
2022-12-01T08:26:16.718Z,21.80
2022-12-01T08:28:44.761Z,21.03
2022-12-01T08:31:22.324Z,19.40
2022-12-01T08:33:50.758Z,18.53
2022-12-01T08:36:20.441Z,18.70
2022-12-01T08:38:50.247Z,17.83
2022-12-01T08:41:17.556Z,16.97
2022-12-01T08:44:01.332Z,18.30
2022-12-01T08:46:32.619Z,17.17
2022-12-01T08:48:59.962Z,17.90
2022-12-01T08:51:27.162Z,18.73
2022-12-01T08:53:57.385Z,18.30
2022-12-01T08:56:35.838Z,17.37
2022-12-01T08:59:02.914Z,17.07
2022-12-01T09:01:29.962Z,19.63
2022-12-01T09:04:10.330Z,18.33
2022-12-01T09:06:46.694Z,16.70
2022-12-01T09:09:17.138Z,18.97
2022-12-01T09:11:47.448Z,29.70
2022-12-01T09:14:16.300Z,29.60
2022-12-01T09:16:45.367Z,26.17
2022-12-01T09:19:17.929Z,17.90
2022-12-01T09:21:48.997Z,17.13
2022-12-01T09:24:16.752Z,17.90
2022-12-01T09:26:43.740Z,19.60
2022-12-01T09:29:13.732Z,18.57
2022-12-01T09:31:41.835Z,20.17
2022-12-01T09:34:15.045Z,17.73
2022-12-01T09:36:42.133Z,18.30
2022-12-01T09:39:15.424Z,17.87
2022-12-01T09:41:55.366Z,18.57
2022-12-01T09:44:40.732Z,17.57
2022-12-01T09:47:22.628Z,18.33
2022-12-01T09:49:51.775Z,17.60
2022-12-01T09:52:20.060Z,18.80
2022-12-01T09:54:48.020Z,17.70
2022-12-01T09:57:27.247Z,16.67
2022-12-01T09:59:54.773Z,18.13
2022-12-01T10:03:09.675Z,17.47
2022-12-01T10:06:24.629Z,18.87
2022-12-01T10:08:42.388Z,17.67
2022-12-01T10:11:27.096Z,17.77
2022-12-01T10:13:53.972Z,18.43
2022-12-01T10:16:30.348Z,18.80
2022-12-01T10:19:21.123Z,18.60
2022-12-01T10:22:21.801Z,18.70
2022-12-01T10:25:10.610Z,18.07
2022-12-01T10:28:02.475Z,18.70
2022-12-01T10:30:29.645Z,17.90
2022-12-01T10:33:17.519Z,18.20
2022-12-01T10:35:44.409Z,19.37
2022-12-01T10:38:26.346Z,20.57
2022-12-01T10:40:55.320Z,20.20
2022-12-01T10:43:50.704Z,20.57
2022-12-01T10:46:42.130Z,18.83
2022-12-01T10:49:15.092Z,19.83
2022-12-01T10:51:53.703Z,19.63
2022-12-01T10:54:34.432Z,19.67
2022-12-01T10:57:01.926Z,19.53
2022-12-01T10:59:36.131Z,19.63
2022-12-01T11:02:13.947Z,19.43
2022-12-01T11:04:45.815Z,20.20
2022-12-01T11:07:23.088Z,20.83
2022-12-01T11:10:28.884Z,19.60
2022-12-01T11:13:31.623Z,19.70
2022-12-01T11:16:02.142Z,21.17
2022-12-01T11:18:37.018Z,22.23
2022-12-01T11:21:13.566Z,20.57
2022-12-01T11:23:52.797Z,21.20
2022-12-01T11:26:32.156Z,22.00
2022-12-01T11:29:03.571Z,21.87
2022-12-01T11:31:44.042Z,21.33
2022-12-01T11:34:27.000Z,23.00
2022-12-01T11:36:57.721Z,21.67
2022-12-01T11:39:35.825Z,23.03
2022-12-01T11:42:11.870Z,22.07
2022-12-01T11:44:55.303Z,21.00
2022-12-01T11:47:26.052Z,21.73
2022-12-01T11:50:23.925Z,20.40
2022-12-01T11:52:50.792Z,21.73
2022-12-01T11:55:17.478Z,20.73
2022-12-01T11:57:49.673Z,22.50
2022-12-01T12:00:26.798Z,21.87
2022-12-01T12:03:20.914Z,22.40
2022-12-01T12:06:38.510Z,22.47
2022-12-01T12:10:19.098Z,21.40
2022-12-01T12:13:36.347Z,20.47
2022-12-01T12:16:33.494Z,22.00
2022-12-01T12:20:06.111Z,22.33
2022-12-01T12:23:09.028Z,20.93
2022-12-01T12:25:52.680Z,20.17
2022-12-01T12:29:13.829Z,21.90
2022-12-01T12:32:08.731Z,22.07
2022-12-01T12:34:47.435Z,22.87
2022-12-01T12:37:38.289Z,22.47
2022-12-01T12:40:55.420Z,20.97
2022-12-01T12:43:54.772Z,20.93
2022-12-01T12:47:01.736Z,20.07
2022-12-01T12:49:43.997Z,22.23
2022-12-01T12:52:18.034Z,21.77
2022-12-01T12:54:50.874Z,21.60
2022-12-01T12:57:39.203Z,23.10
2022-12-01T13:00:29.548Z,22.63
2022-12-01T13:03:23.211Z,22.30
2022-12-01T13:06:07.050Z,22.03
2022-12-01T13:08:39.030Z,22.30
2022-12-01T13:11:35.028Z,21.43
2022-12-01T13:14:07.834Z,20.60
2022-12-01T13:16:40.632Z,21.57
2022-12-01T13:19:37.401Z,22.80
2022-12-01T13:22:07.137Z,21.93
2022-12-01T13:24:34.381Z,23.20
2022-12-01T13:27:10.269Z,22.00
2022-12-01T13:29:43.965Z,23.07
2022-12-01T13:32:37.716Z,22.43
2022-12-01T13:35:25.161Z,23.00
2022-12-01T13:37:52.337Z,22.57
2022-12-01T13:40:29.838Z,24.17
2022-12-01T13:42:59.679Z,23.80
2022-12-01T13:45:33.594Z,22.83
2022-12-01T13:48:01.800Z,22.23
2022-12-01T13:50:44.014Z,23.40
2022-12-01T13:53:27.067Z,23.93
2022-12-01T13:55:56.948Z,21.77
2022-12-01T13:58:47.197Z,23.97
2022-12-01T14:01:20.288Z,22.93
2022-12-01T14:04:22.348Z,23.37
2022-12-01T14:07:14.423Z,21.20
2022-12-01T14:09:42.482Z,22.33
2022-12-01T14:12:19.643Z,21.83
2022-12-01T14:15:00.912Z,22.70
2022-12-01T14:17:37.832Z,21.63
2022-12-01T14:20:22.165Z,23.77
2022-12-01T14:23:29.155Z,21.83
2022-12-01T14:26:14.239Z,22.73
2022-12-01T14:28:56.091Z,23.67
2022-12-01T14:31:51.808Z,22.47
2022-12-01T14:34:26.521Z,23.57
2022-12-01T14:37:12.263Z,22.43
2022-12-01T14:39:46.229Z,22.90
2022-12-01T14:42:56.335Z,21.77
2022-12-01T14:46:16.817Z,20.20
2022-12-01T14:48:45.588Z,22.57
2022-12-01T14:51:32.269Z,21.87
2022-12-01T14:54:06.700Z,23.53
2022-12-01T14:56:34.257Z,23.07
2022-12-01T14:59:14.918Z,23.43
2022-12-01T15:01:41.845Z,24.03
2022-12-01T15:04:08.689Z,22.10
2022-12-01T15:06:36.683Z,24.00
2022-12-01T15:09:33.463Z,26.63
2022-12-01T15:12:07.754Z,69.53
2022-12-01T15:14:47.127Z,79.53
2022-12-01T15:17:36.978Z,32.03
2022-12-01T15:20:05.179Z,29.83
2022-12-01T15:22:33.815Z,28.00
2022-12-01T15:25:15.591Z,25.23
2022-12-01T15:27:45.558Z,23.03
2022-12-01T15:30:16.716Z,22.43
2022-12-01T15:32:45.702Z,22.30
2022-12-01T15:35:23.669Z,28.00
2022-12-01T15:37:52.513Z,24.33
2022-12-01T15:43:24.821Z,24.07
2022-12-01T15:45:56.736Z,23.70
2022-12-01T15:48:42.263Z,23.30
2022-12-01T15:51:29.368Z,23.00
2022-12-01T15:53:59.881Z,24.27
2022-12-01T15:56:34.970Z,24.30
2022-12-01T15:59:13.252Z,23.80
2022-12-01T16:01:43.580Z,23.10
2022-12-01T16:04:20.174Z,24.27
2022-12-01T16:07:09.601Z,24.07
2022-12-01T16:09:58.361Z,23.50
2022-12-01T16:12:32.937Z,23.80
2022-12-01T16:15:08.456Z,28.23
2022-12-01T16:17:53.797Z,25.53
2022-12-01T16:20:23.356Z,24.20
2022-12-01T16:23:00.460Z,26.03
2022-12-01T16:25:43.314Z,24.23
2022-12-01T16:28:25.810Z,25.17
2022-12-01T16:30:53.471Z,23.43
2022-12-01T16:33:24.847Z,27.60
2022-12-01T16:35:52.996Z,25.50
2022-12-01T16:38:23.774Z,25.97
2022-12-01T16:40:54.002Z,25.57
2022-12-01T16:43:24.173Z,27.70
2022-12-01T16:46:00.255Z,25.13
2022-12-01T16:48:27.319Z,25.00
2022-12-01T16:50:54.420Z,24.80
2022-12-01T16:53:21.294Z,26.30
2022-12-01T16:55:56.898Z,24.87
2022-12-01T16:58:23.857Z,26.03
2022-12-01T17:00:54.639Z,24.93
2022-12-01T17:03:27.272Z,27.20
2022-12-01T17:05:54.978Z,25.47
2022-12-01T17:08:22.645Z,25.27
2022-12-01T17:10:50.787Z,26.13
2022-12-01T17:13:23.250Z,26.20
2022-12-01T17:15:54.622Z,24.73
2022-12-01T17:18:23.594Z,26.13
2022-12-01T17:21:03.329Z,26.60
2022-12-01T17:23:30.316Z,27.73
2022-12-01T17:25:57.156Z,31.40
2022-12-01T17:28:23.974Z,26.53
2022-12-01T17:30:50.934Z,30.00
2022-12-01T17:33:18.036Z,26.03
2022-12-01T17:35:44.863Z,30.57
2022-12-01T17:38:11.663Z,30.57
2022-12-01T17:40:38.564Z,32.37
2022-12-01T17:43:08.172Z,52.37
2022-12-01T17:45:35.044Z,63.83
2022-12-01T17:48:01.844Z,52.47
2022-12-01T17:50:28.640Z,47.27
2022-12-01T17:52:55.427Z,46.17
2022-12-01T17:55:22.194Z,41.90
2022-12-01T17:57:49.060Z,42.97
2022-12-01T18:00:16.636Z,55.10
2022-12-01T18:02:43.623Z,43.00
2022-12-01T18:05:12.303Z,34.67
2022-12-01T18:07:39.296Z,43.37
2022-12-01T18:10:06.959Z,32.90
2022-12-01T18:12:33.911Z,29.47
2022-12-01T18:15:00.926Z,27.67
2022-12-01T18:17:27.760Z,25.43
2022-12-01T18:19:54.666Z,25.20
2022-12-01T18:22:22.502Z,24.80
2022-12-01T18:24:49.695Z,23.43
2022-12-01T18:27:16.812Z,22.77
2022-12-01T18:29:43.842Z,23.50
2022-12-01T18:32:10.690Z,23.63
2022-12-01T18:34:37.513Z,23.00
2022-12-01T18:37:05.962Z,23.47
2022-12-01T18:39:33.468Z,24.40
2022-12-01T18:42:00.444Z,24.30
2022-12-01T18:44:27.406Z,23.50
2022-12-01T18:46:54.554Z,24.10
2022-12-01T18:49:21.451Z,25.73
2022-12-01T18:51:48.340Z,24.03
2022-12-01T18:54:16.590Z,24.00
2022-12-01T18:56:43.531Z,24.93
2022-12-01T18:59:12.752Z,26.73
2022-12-01T19:01:44.153Z,24.97
2022-12-01T19:04:11.444Z,23.53
2022-12-01T19:06:40.192Z,24.03
2022-12-01T19:09:11.341Z,24.37
2022-12-01T19:11:40.432Z,24.63
2022-12-01T19:14:09.619Z,25.83
2022-12-01T19:16:36.570Z,25.23
2022-12-01T19:19:03.461Z,25.03
2022-12-01T19:21:30.441Z,25.53
2022-12-01T19:23:57.785Z,24.67
2022-12-01T19:26:25.856Z,24.90
2022-12-01T19:28:52.944Z,25.47
2022-12-01T19:31:23.693Z,25.40
2022-12-01T19:33:52.076Z,24.43
2022-12-01T19:36:22.325Z,25.27
2022-12-01T19:38:49.644Z,24.70
2022-12-01T19:41:20.335Z,25.20
2022-12-01T19:43:47.979Z,25.23
2022-12-01T19:46:18.727Z,26.00
2022-12-01T19:48:46.524Z,25.53
2022-12-01T19:51:26.372Z,24.03
2022-12-01T19:53:54.040Z,24.60
2022-12-01T19:56:21.699Z,24.90
2022-12-01T19:58:48.805Z,25.87
2022-12-01T20:01:17.900Z,25.70
2022-12-01T20:03:47.674Z,25.10
2022-12-01T20:06:18.350Z,24.20
2022-12-01T20:08:45.711Z,24.90
2022-12-01T20:11:14.310Z,25.57
2022-12-01T20:13:43.477Z,26.63
2022-12-01T20:16:12.687Z,25.67
2022-12-01T20:18:40.981Z,25.17
2022-12-01T20:21:36.755Z,24.80
2022-12-01T20:24:07.151Z,24.57
2022-12-01T20:26:47.101Z,25.33
2022-12-01T20:29:21.718Z,24.83
2022-12-01T20:31:50.835Z,25.90
2022-12-01T20:34:33.412Z,24.37
2022-12-01T20:37:01.630Z,25.53
2022-12-01T20:39:32.727Z,23.93
2022-12-01T20:41:59.698Z,26.00
2022-12-01T20:44:27.789Z,22.87
2022-12-01T20:46:55.750Z,24.17
2022-12-01T20:49:23.014Z,24.97
2022-12-01T20:51:51.096Z,24.33
2022-12-01T20:54:29.073Z,24.07
2022-12-01T20:56:58.862Z,24.13
2022-12-01T20:59:26.406Z,24.53
2022-12-01T21:01:54.090Z,23.93
2022-12-01T21:04:21.443Z,25.23
2022-12-01T21:06:50.274Z,24.43
2022-12-01T21:09:18.076Z,25.27
2022-12-01T21:12:09.388Z,25.33
2022-12-01T21:14:48.940Z,24.67
2022-12-01T21:17:22.456Z,24.23
2022-12-01T21:20:21.581Z,25.30
2022-12-01T21:22:50.456Z,24.03
2022-12-01T21:25:24.278Z,24.40
2022-12-01T21:27:51.514Z,24.50
2022-12-01T21:30:22.312Z,26.40
2022-12-01T21:32:50.083Z,24.37
2022-12-01T21:35:24.739Z,24.47
2022-12-01T21:37:59.015Z,24.53
2022-12-01T21:40:28.357Z,24.30
2022-12-01T21:43:00.353Z,24.07
2022-12-01T21:45:29.856Z,24.33
2022-12-01T21:48:22.981Z,24.03
2022-12-01T21:51:00.891Z,24.73
2022-12-01T21:53:37.642Z,24.00
2022-12-01T21:56:04.655Z,23.03
2022-12-01T21:58:36.945Z,25.87
2022-12-01T22:01:20.124Z,24.33
2022-12-01T22:03:47.594Z,24.00
2022-12-01T22:06:43.270Z,26.00
2022-12-01T22:09:33.919Z,26.63
2022-12-01T22:12:28.778Z,24.10
2022-12-01T22:15:01.024Z,25.70
2022-12-01T22:17:28.239Z,25.73
2022-12-01T22:20:02.255Z,26.90
2022-12-01T22:22:30.803Z,27.20
2022-12-01T22:25:24.353Z,26.20
2022-12-01T22:27:51.976Z,25.77
2022-12-01T22:30:22.677Z,24.50
2022-12-01T22:32:59.207Z,25.67
2022-12-01T22:35:42.377Z,26.33
2022-12-01T22:38:09.025Z,25.07
2022-12-01T22:40:43.032Z,25.17
2022-12-01T22:43:15.852Z,25.50
2022-12-01T22:46:08.652Z,26.27
2022-12-01T22:48:44.408Z,24.77
2022-12-01T22:51:14.170Z,24.93
2022-12-01T22:53:42.242Z,24.87
2022-12-01T22:56:33.936Z,27.10
2022-12-01T22:59:09.725Z,25.33
2022-12-01T23:01:47.152Z,26.30
2022-12-01T23:04:28.664Z,27.00
2022-12-01T23:07:09.480Z,26.17
2022-12-01T23:09:41.799Z,26.77
2022-12-01T23:12:11.583Z,25.37
2022-12-01T23:14:51.810Z,23.87
2022-12-01T23:17:24.144Z,26.17
2022-12-01T23:19:58.828Z,25.50
2022-12-01T23:22:25.635Z,24.90
2022-12-01T23:24:52.820Z,25.80
2022-12-01T23:27:19.766Z,24.60
2022-12-01T23:29:46.660Z,24.97
2022-12-01T23:32:13.527Z,25.03
2022-12-01T23:34:40.412Z,25.73
2022-12-01T23:37:29.024Z,26.13
2022-12-01T23:39:56.205Z,25.63
2022-12-01T23:42:23.044Z,25.67
2022-12-01T23:44:50.329Z,26.70
2022-12-01T23:47:25.566Z,26.60
2022-12-01T23:50:01.118Z,26.67
2022-12-01T23:52:35.469Z,26.03
2022-12-01T23:55:23.433Z,26.03
2022-12-01T23:57:51.401Z,27.50
